Historique des mesures à Cassis (13260), France
Quotidien Résumé Mars 3, 2018 Unités:  Métrique/US    US   Métrique
« Précédent (Jour)
Suivant (Jour) »
Quotidien Hebdomadaire Mensuel Annuel Période au choix
  Maximum: Minimum: Moyenne:
Température: 32 °F /  TemperatureC °C 49.8 °F /  9.9 °C 54.1 °F /  12.3 °C
Point de rosée: 32 °F /  DewpointC °C 38.5 °F /  3.6 °C 45.5 °F /  7.5 °C
Humidité: Humidity % 54 % 70 %
Vitesse du vent: WindSpeedKMH mph /  0 km/h - 6.6 mph /  10.6 km/h
Rafales: WindSpeedGustKMH mph /  0 km/h - -
Vent:- - SW
Pression: 0 in /  PressurehPa hPa 29.1 in /  987.0 hPa -
Précipitations: 50.8 in /  2.0 mm    
Historical Graphs
 
 
Mesures pour : Mars 3, 2018
Heure Temperature Point de rosée Pression Vent Vitesse du vent Rafales Humidité Pluie (par heure) Conditions
32 °F /  TemperatureC °C 32 °F /  DewpointC °C 0 in /  PressurehPa hPa Calm     Humidity % 0 in /  HourlyPrecipMM mm SoftwareType W/m2
00:12 49.8 °F /  9.9 °C 38.5 °F /  3.6 °C 29.4 in /  994.1 hPa ESE 4.7 mph /  7.6 km/h 5.5 mph /  8.9 km/h 65 % 0 in /  0.0 mm open2300-1.11 W/m2
01:12 51.1 °F /  10.6 °C 41.4 °F /  5.2 °C 29.3 in /  993.1 hPa ESE 6.8 mph /  10.9 km/h 7.2 mph /  11.6 km/h 69 % 0 in /  0.0 mm open2300-1.11 W/m2
02:12 49.8 °F /  9.9 °C 44.2 °F /  6.8 °C 29.3 in /  992.4 hPa SSE 6.1 mph /  9.8 km/h 6.1 mph /  9.8 km/h 81 % 12.7 in /  0.5 mm open2300-1.11 W/m2
03:12 50.5 °F /  10.3 °C 45.9 °F /  7.7 °C 29.3 in /  991.1 hPa Calm   1.4 mph /  2.3 km/h 84 % 12.7 in /  0.5 mm open2300-1.11 W/m2
04:12 51.3 °F /  10.7 °C 47.1 °F /  8.4 °C 29.2 in /  989.7 hPa SSE 4.0 mph /  6.4 km/h 4.7 mph /  7.6 km/h 86 % 25.4 in /  1.0 mm open2300-1.11 W/m2
05:12 52.3 °F /  11.3 °C 48.6 °F /  9.2 °C 29.2 in /  988.0 hPa SE 2.6 mph /  4.2 km/h 5.8 mph /  9.3 km/h 87 % 0 in /  0.0 mm open2300-1.11 W/m2
06:12 54.3 °F /  12.4 °C 50.7 °F /  10.4 °C 29.2 in /  987.7 hPa West 2.1 mph /  3.4 km/h 10.1 mph /  16.3 km/h 88 % 0 in /  0.0 mm open2300-1.11 W/m2
07:12 54.5 °F /  12.5 °C 51.3 °F /  10.7 °C 29.1 in /  987.0 hPa South 2.1 mph /  3.4 km/h 3.2 mph /  5.1 km/h 89 % 0 in /  0.0 mm open2300-1.11 W/m2
08:12 54.3 °F /  12.4 °C 50.7 °F /  10.4 °C 29.2 in /  987.7 hPa SSW 4.0 mph /  6.4 km/h 4.0 mph /  6.4 km/h 88 % 0 in /  0.0 mm open2300-1.11 W/m2
09:12 55.9 °F /  13.3 °C 51.8 °F /  11.0 °C 29.2 in /  988.7 hPa Calm     86 % 0 in /  0.0 mm open2300-1.11 W/m2
10:12 56.8 °F /  13.8 °C 51.6 °F /  10.9 °C 29.2 in /  989.7 hPa WNW 7.6 mph /  12.2 km/h 7.6 mph /  12.2 km/h 83 % 0 in /  0.0 mm open2300-1.11 W/m2
11:12 59.2 °F /  15.1 °C 47.5 °F /  8.6 °C 29.3 in /  991.1 hPa West 16.9 mph /  27.2 km/h 30.2 mph /  48.6 km/h 65 % 0 in /  0.0 mm open2300-1.11 W/m2
12:12 59.4 °F /  15.2 °C 46.2 °F /  7.9 °C 29.3 in /  991.8 hPa WNW 9.7 mph /  15.6 km/h 20.1 mph /  32.3 km/h 62 % 0 in /  0.0 mm open2300-1.11 W/m2
13:12 57.9 °F /  14.4 °C 46.2 °F /  7.9 °C 29.3 in /  992.8 hPa WNW 20.9 mph /  33.6 km/h 21.6 mph /  34.8 km/h 65 % 0 in /  0.0 mm open2300-1.11 W/m2
14:12 58.5 °F /  14.7 °C 47.1 °F /  8.4 °C 29.3 in /  993.1 hPa WNW 24.8 mph /  39.9 km/h 31.7 mph /  51 km/h 66 % 0 in /  0.0 mm open2300-1.11 W/m2
15:12 59.5 °F /  15.3 °C 46.6 °F /  8.1 °C 29.3 in /  993.1 hPa WNW 25.3 mph /  40.7 km/h 25.3 mph /  40.7 km/h 62 % 0 in /  0.0 mm open2300-1.11 W/m2
16:12 61 °F /  16.1 °C 45.1 °F /  7.3 °C 29.3 in /  993.1 hPa NNW 5.5 mph /  8.9 km/h 8.2 mph /  13.2 km/h 56 % 0 in /  0.0 mm open2300-1.11 W/m2
17:12 60.4 °F /  15.8 °C 45.1 °F /  7.3 °C 29.4 in /  993.8 hPa North 2.9 mph /  4.7 km/h 13.7 mph /  22 km/h 57 % 0 in /  0.0 mm open2300-1.11 W/m2
18:12 59.2 °F /  15.1 °C 42.4 °F /  5.8 °C 29.4 in /  995.1 hPa Calm   3.2 mph /  5.1 km/h 54 % 0 in /  0.0 mm open2300-1.11 W/m2
19:12 55.9 °F /  13.3 °C 43.5 °F /  6.4 °C 29.4 in /  995.8 hPa WNW 7.2 mph /  11.6 km/h 7.2 mph /  11.6 km/h 63 % 0 in /  0.0 mm open2300-1.11 W/m2
20:12 54 °F /  12.2 °C 44.1 °F /  6.7 °C 29.4 in /  996.5 hPa WNW 6.4 mph /  10.3 km/h 6.4 mph /  10.3 km/h 69 % 0 in /  0.0 mm open2300-1.11 W/m2
21:12 52.2 °F /  11.2 °C 42.8 °F /  6.0 °C 29.5 in /  997.2 hPa NW 4.3 mph /  6.9 km/h 4.3 mph /  6.9 km/h 70 % 0 in /  0.0 mm open2300-1.11 W/m2
22:12 51.6 °F /  10.9 °C 43 °F /  6.1 °C 29.5 in /  997.5 hPa Calm     72 % 0 in /  0.0 mm open2300-1.11 W/m2
23:12 50.5 °F /  10.3 °C 41.9 °F /  5.5 °C 29.5 in /  997.9 hPa Calm   2.1 mph /  3.4 km/h 72 % 0 in /  0.0 mm open2300-1.11 W/m2
Observations météo à CASSIS
WU-History script by Weather Underground - 1 mb